Monroe, Oklahoma
Current Conditions -  °F | °C
As of 3:15 AM on Saturday 22 Nov 2014 (Local Time) from KRKR Reporting Station
Overcast Overcast  
Wind Chill: 59°   Ceiling: 2700
Heat Index: 59°   Visibility: 10mi
Dew Point: 48°   Wind: 10mph
Humidity: 68%   Direction: 180°S
Pressure: 30.14"   Gusts: 16mph
Location:  34.99°N, 94.52°W
Report Text: KRKR 220915Z AUTO 18009G14KT 10SM OVC027 15/09 A3014 RMK AO2 LTG DSNT W T01480089
Loading
Personal Weather Stations






























Interactive Weather Map New forecast layout! Learn more

10-Day Weather Forecast

Advertisements
Track Severe Weather on mobile